Michigan City, Indiana
Current Conditions -  °F | °C
As of 1:35 PM on Thursday 27 Nov 2014 (Local Time) from KMGC Reporting Station
Light Snow Light Snow  
Wind Chill: 17°   Ceiling: 2300
Heat Index: 28°   Visibility: 10mi
Dew Point: 19°   Wind: 14mph
Humidity: 69%   Direction: 300°WNW
Pressure: 30.3"   Gusts: 17mph
Location:  41.72°N, 86.9°W
Report Text: KMGC 271935Z AUTO 30012G15KT 10SM -SN OVC023 M02/M07 A3030 RMK AO2
Loading
Personal Weather Stations






























Interactive Weather Map New forecast layout! Learn more

10-Day Weather Forecast

Advertisements
Track Severe Weather on mobile